Time;durP1;ratioP1;P1;durP2;ratioP2;P2;SDS_P1;SDS_P2;PMS_P1;PMS_P2;Temp;Humidity;BMP_temperature;BMP_pressure;BME280_temperature;BME280_humidity;BME280_pressure;Samples;Min_cycle;Max_cycle;Signal;HPM_P1;HPM_P2
2024/01/15 00:01:09;;;;;;;4.03;2.53;;;;;;;;;;4976174;28;20061;-67
2024/01/15 00:03:34;;;;;;;4.28;2.70;;;;;;;;;;4974870;28;20967;-69
2024/01/15 00:06:00;;;;;;;3.65;2.53;;;;;;;;;;4975207;28;20080;-67
2024/01/15 00:08:25;;;;;;;5.55;3.35;;;;;;;;;;4974472;28;20050;-68
2024/01/15 00:10:51;;;;;;;4.45;2.85;;;;;;;;;;4975794;28;20089;-66
2024/01/15 00:13:16;;;;;;;2.13;1.88;;;;;;;;;;4975739;28;20054;-69
2024/01/15 00:15:42;;;;;;;4.22;2.30;;;;;;;;;;4975037;28;20050;-67
2024/01/15 00:18:07;;;;;;;2.53;1.98;;;;;;;;;;4958477;28;20046;-69
2024/01/15 00:20:33;;;;;;;3.53;2.67;;;;;;;;;;4979041;28;20054;-65
2024/01/15 00:22:58;;;;;;;2.53;1.88;;;;;;;;;;4962209;28;20046;-68
2024/01/15 00:25:23;;;;;;;1.85;1.75;;;;;;;;;;4979661;28;20048;-66
2024/01/15 00:27:49;;;;;;;2.00;1.80;;;;;;;;;;4978050;28;20801;-65
2024/01/15 00:30:14;;;;;;;10.85;3.13;;;;;;;;;;4980184;28;20050;-67
2024/01/15 00:32:40;;;;;;;3.38;1.85;;;;;;;;;;4992719;28;20050;-66
2024/01/15 00:35:05;;;;;;;3.10;2.70;;;;;;;;;;4979381;28;20133;-66
2024/01/15 00:37:31;;;;;;;2.92;2.53;;;;;;;;;;4978395;28;20539;-67
2024/01/15 00:39:56;;;;;;;5.97;3.35;;;;;;;;;;4978296;28;20076;-67
2024/01/15 00:42:22;;;;;;;8.15;2.97;;;;;;;;;;4978629;28;20046;-67
2024/01/15 00:44:47;;;;;;;7.00;3.15;;;;;;;;;;4962710;28;20530;-68
2024/01/15 00:47:12;;;;;;;4.05;3.35;;;;;;;;;;4978921;28;20042;-67
2024/01/15 00:49:38;;;;;;;2.47;2.28;;;;;;;;;;4977210;28;20157;-65
2024/01/15 00:52:04;;;;;;;2.45;2.13;;;;;;;;;;4979163;28;20054;-68
2024/01/15 00:54:29;;;;;;;3.47;2.78;;;;;;;;;;4978912;28;20066;-67
2024/01/15 00:56:54;;;;;;;3.03;2.35;;;;;;;;;;4962172;28;20116;-68
2024/01/15 00:59:20;;;;;;;5.28;2.83;;;;;;;;;;4979940;28;20128;-68
2024/01/15 01:01:46;;;;;;;3.70;2.28;;;;;;;;;;4977776;28;20108;-68
2024/01/15 01:04:12;;;;;;;2.70;1.77;;;;;;;;;;4978457;28;20042;-69
2024/01/15 01:06:38;;;;;;;2.28;1.92;;;;;;;;;;4978529;28;21074;-66
2024/01/15 01:09:03;;;;;;;5.75;3.33;;;;;;;;;;4978698;28;20928;-67
2024/01/15 01:11:29;;;;;;;4.00;3.22;;;;;;;;;;4960586;28;20768;-67
2024/01/15 01:13:56;;;;;;;6.78;3.03;;;;;;;;;;4978537;28;20512;-67
2024/01/15 01:16:21;;;;;;;5.38;2.85;;;;;;;;;;4978368;28;20133;-68
2024/01/15 01:18:47;;;;;;;7.05;4.18;;;;;;;;;;4978433;28;20101;-68
2024/01/15 01:21:12;;;;;;;3.38;2.92;;;;;;;;;;4979790;28;20115;-65
2024/01/15 01:23:37;;;;;;;5.57;3.42;;;;;;;;;;4977213;28;20407;-66
2024/01/15 01:26:03;;;;;;;6.18;4.38;;;;;;;;;;4978265;28;20078;-68
2024/01/15 01:28:28;;;;;;;2.70;2.10;;;;;;;;;;4959443;28;20408;-67
2024/01/15 01:30:54;;;;;;;5.57;3.35;;;;;;;;;;4976974;28;20050;-68
2024/01/15 01:33:19;;;;;;;7.95;4.55;;;;;;;;;;4976484;28;20153;-68
2024/01/15 01:35:45;;;;;;;4.88;3.78;;;;;;;;;;4976425;28;20056;-67
2024/01/15 01:38:10;;;;;;;5.57;3.47;;;;;;;;;;4977760;28;20053;-67
2024/01/15 01:40:36;;;;;;;7.10;4.93;;;;;;;;;;4977922;28;20077;-68
2024/01/15 01:43:03;;;;;;;8.50;4.95;;;;;;;;;;4978106;28;20038;-67
2024/01/15 01:45:29;;;;;;;7.88;5.18;;;;;;;;;;4977932;28;20109;-69
2024/01/15 01:47:54;;;;;;;4.85;4.05;;;;;;;;;;4977739;28;20049;-66
2024/01/15 01:50:20;;;;;;;8.13;4.53;;;;;;;;;;4978205;28;20791;-66
2024/01/15 01:52:45;;;;;;;7.93;3.63;;;;;;;;;;4976585;28;20050;-68
2024/01/15 01:55:12;;;;;;;6.03;3.53;;;;;;;;;;4977219;28;20046;-65
2024/01/15 01:57:38;;;;;;;12.25;7.90;;;;;;;;;;4977219;28;20496;-67
2024/01/15 02:00:04;;;;;;;6.78;4.68;;;;;;;;;;4977139;28;20046;-66
2024/01/15 02:02:37;;;;;;;8.75;4.90;;;;;;;;;;4976976;28;20046;-66
2024/01/15 02:05:04;;;;;;;10.40;6.07;;;;;;;;;;4961119;28;20058;-67
2024/01/15 02:07:30;;;;;;;7.97;4.63;;;;;;;;;;4977189;28;20992;-65
2024/01/15 02:09:56;;;;;;;10.07;6.35;;;;;;;;;;4979860;28;20060;-66
2024/01/15 02:12:21;;;;;;;6.70;5.15;;;;;;;;;;4977190;28;20050;-65
2024/01/15 02:14:47;;;;;;;11.90;6.40;;;;;;;;;;4961443;28;20050;-67
2024/01/15 02:17:12;;;;;;;3.88;3.03;;;;;;;;;;4977500;28;20046;-65
2024/01/15 02:19:39;;;;;;;6.07;3.55;;;;;;;;;;4976478;28;20080;-65
2024/01/15 02:22:05;;;;;;;9.88;5.32;;;;;;;;;;4960100;28;20054;-65
2024/01/15 02:24:30;;;;;;;9.15;5.55;;;;;;;;;;4978047;28;20050;-66
2024/01/15 02:26:55;;;;;;;7.00;4.97;;;;;;;;;;4977382;28;20129;-66
2024/01/15 02:29:21;;;;;;;3.65;2.92;;;;;;;;;;4977686;28;20466;-66
2024/01/15 02:31:46;;;;;;;7.35;5.07;;;;;;;;;;4974403;28;20054;-67
2024/01/15 02:34:12;;;;;;;3.72;2.55;;;;;;;;;;4977668;28;20126;-68
2024/01/15 02:36:37;;;;;;;5.60;3.70;;;;;;;;;;4975806;28;20137;-68
2024/01/15 02:39:03;;;;;;;4.28;3.22;;;;;;;;;;4976795;28;20042;-69
2024/01/15 02:41:28;;;;;;;7.50;2.55;;;;;;;;;;4974865;28;20047;-66
2024/01/15 02:43:54;;;;;;;6.57;4.03;;;;;;;;;;4975555;28;20953;-67
2024/01/15 02:46:19;;;;;;;7.38;4.05;;;;;;;;;;4977062;28;20069;-66
2024/01/15 02:48:45;;;;;;;4.53;2.58;;;;;;;;;;4976050;28;20050;-67
2024/01/15 02:51:10;;;;;;;3.50;2.58;;;;;;;;;;4977487;28;20462;-68
2024/01/15 02:53:37;;;;;;;6.20;4.47;;;;;;;;;;4974085;28;20061;-69
2024/01/15 02:56:02;;;;;;;8.20;5.40;;;;;;;;;;4977034;28;20686;-66
2024/01/15 02:58:28;;;;;;;5.70;3.65;;;;;;;;;;4976009;28;20061;-70
2024/01/15 03:00:53;;;;;;;5.45;4.32;;;;;;;;;;4976441;28;20050;-69
2024/01/15 03:03:18;;;;;;;5.28;3.75;;;;;;;;;;4976494;28;20137;-67
2024/01/15 03:05:44;;;;;;;6.50;4.45;;;;;;;;;;4958851;28;20054;-67
2024/01/15 03:08:09;;;;;;;5.88;4.25;;;;;;;;;;4976255;28;20047;-67
2024/01/15 03:10:35;;;;;;;8.73;5.22;;;;;;;;;;4976831;28;20053;-67
2024/01/15 03:13:00;;;;;;;5.60;3.67;;;;;;;;;;4960454;28;20081;-66
2024/01/15 03:15:26;;;;;;;5.50;3.85;;;;;;;;;;4975543;28;20104;-69
2024/01/15 03:17:51;;;;;;;9.25;3.50;;;;;;;;;;4973234;28;20120;-69
2024/01/15 03:20:16;;;;;;;2.20;2.00;;;;;;;;;;4960732;28;20052;-67
2024/01/15 03:22:42;;;;;;;5.50;4.03;;;;;;;;;;4974843;28;20455;-68
2024/01/15 03:25:07;;;;;;;9.77;4.45;;;;;;;;;;4976698;28;20050;-66
2024/01/15 03:27:33;;;;;;;4.95;3.58;;;;;;;;;;4974481;28;20133;-67
2024/01/15 03:29:59;;;;;;;7.85;4.63;;;;;;;;;;4976633;28;20062;-67
2024/01/15 03:32:24;;;;;;;6.65;4.97;;;;;;;;;;4975582;28;20077;-69
2024/01/15 03:34:49;;;;;;;7.50;2.67;;;;;;;;;;4976431;28;20046;-68
2024/01/15 03:37:15;;;;;;;5.70;4.00;;;;;;;;;;4974972;28;20133;-68
2024/01/15 03:39:40;;;;;;;5.97;3.83;;;;;;;;;;4975085;28;20132;-65
2024/01/15 03:42:06;;;;;;;5.18;3.60;;;;;;;;;;4975232;28;20038;-67
2024/01/15 03:44:32;;;;;;;2.67;2.45;;;;;;;;;;4975741;28;20046;-65
2024/01/15 03:46:58;;;;;;;4.22;2.78;;;;;;;;;;4976246;28;20046;-67
2024/01/15 03:49:23;;;;;;;7.07;3.50;;;;;;;;;;4975437;28;20447;-65
2024/01/15 03:51:48;;;;;;;3.58;3.00;;;;;;;;;;4974840;28;20053;-68
2024/01/15 03:54:14;;;;;;;6.45;4.18;;;;;;;;;;4959610;28;20042;-67
2024/01/15 03:56:39;;;;;;;4.97;3.65;;;;;;;;;;4975404;28;20113;-68
2024/01/15 03:59:04;;;;;;;3.33;2.70;;;;;;;;;;4975786;28;20092;-67
2024/01/15 04:01:30;;;;;;;6.85;4.38;;;;;;;;;;4991451;28;20443;-67
2024/01/15 04:03:55;;;;;;;4.32;3.65;;;;;;;;;;4994937;28;20062;-67
2024/01/15 04:06:21;;;;;;;6.28;4.35;;;;;;;;;;4996039;28;20056;-68
2024/01/15 04:08:46;;;;;;;6.70;3.90;;;;;;;;;;4994434;28;20041;-67
2024/01/15 04:11:11;;;;;;;3.15;2.90;;;;;;;;;;4995191;28;20351;-67
2024/01/15 04:13:37;;;;;;;5.68;3.50;;;;;;;;;;4993850;28;20666;-68
2024/01/15 04:16:03;;;;;;;9.77;5.38;;;;;;;;;;4995377;28;20501;-65
2024/01/15 04:18:28;;;;;;;6.50;3.88;;;;;;;;;;4993715;28;20049;-66
2024/01/15 04:20:54;;;;;;;5.63;3.78;;;;;;;;;;4994334;28;20045;-67
2024/01/15 04:23:19;;;;;;;7.25;3.40;;;;;;;;;;4994349;28;20049;-65
2024/01/15 04:25:46;;;;;;;7.00;3.90;;;;;;;;;;4992824;28;20148;-64
2024/01/15 04:28:12;;;;;;;2.22;2.03;;;;;;;;;;4994754;28;20042;-66
2024/01/15 04:30:37;;;;;;;6.05;4.80;;;;;;;;;;4993564;28;20076;-67
2024/01/15 04:33:03;;;;;;;6.70;4.45;;;;;;;;;;4989692;28;20406;-67
2024/01/15 04:35:28;;;;;;;5.05;3.17;;;;;;;;;;4990769;28;20882;-66
2024/01/15 04:37:54;;;;;;;6.43;3.80;;;;;;;;;;4993643;28;20049;-67
2024/01/15 04:40:19;;;;;;;6.07;3.88;;;;;;;;;;4994860;28;20499;-66
2024/01/15 04:42:47;;;;;;;5.35;3.08;;;;;;;;;;4976246;28;20061;-68
2024/01/15 04:45:13;;;;;;;6.45;3.67;;;;;;;;;;4994336;28;20446;-67
2024/01/15 04:47:39;;;;;;;3.80;2.10;;;;;;;;;;4971144;28;20054;-68
2024/01/15 04:50:05;;;;;;;4.38;2.88;;;;;;;;;;4992843;28;20045;-68
2024/01/15 04:52:31;;;;;;;7.25;3.33;;;;;;;;;;4992911;28;20066;-67
2024/01/15 04:54:56;;;;;;;5.47;2.67;;;;;;;;;;4992981;28;20073;-68
2024/01/15 04:57:21;;;;;;;2.65;2.22;;;;;;;;;;4977480;28;20111;-67
2024/01/15 04:59:47;;;;;;;6.22;4.22;;;;;;;;;;4992529;28;20065;-68
2024/01/15 05:02:13;;;;;;;5.55;4.13;;;;;;;;;;4990747;28;20470;-67
2024/01/15 05:04:39;;;;;;;2.58;2.38;;;;;;;;;;4993510;28;20083;-69
2024/01/15 05:07:04;;;;;;;3.10;2.55;;;;;;;;;;4996283;28;20133;-67
2024/01/15 05:09:30;;;;;;;2.50;1.67;;;;;;;;;;4996444;28;20071;-68
2024/01/15 05:11:55;;;;;;;3.83;2.85;;;;;;;;;;4995362;28;20117;-67
2024/01/15 05:14:20;;;;;;;3.45;2.38;;;;;;;;;;4997198;28;20055;-68
2024/01/15 05:16:50;;;;;;;3.90;2.17;;;;;;;;;;4996154;28;20622;-69
2024/01/15 05:19:16;;;;;;;2.35;1.83;;;;;;;;;;4997769;28;20050;-68
2024/01/15 05:21:41;;;;;;;6.40;3.40;;;;;;;;;;4995137;28;20049;-68
2024/01/15 05:24:07;;;;;;;2.55;2.33;;;;;;;;;;4997502;28;20065;-68
2024/01/15 05:26:33;;;;;;;2.40;1.85;;;;;;;;;;4996565;28;20052;-67
2024/01/15 05:28:59;;;;;;;6.35;3.05;;;;;;;;;;4995861;28;20426;-68
2024/01/15 05:31:24;;;;;;;4.68;3.00;;;;;;;;;;4997923;28;20045;-69
2024/01/15 05:33:50;;;;;;;5.65;2.20;;;;;;;;;;4995332;28;20053;-68
2024/01/15 05:36:15;;;;;;;5.13;2.70;;;;;;;;;;4996023;28;20598;-68
2024/01/15 05:38:40;;;;;;;4.20;2.60;;;;;;;;;;4995125;28;20053;-69
2024/01/15 05:41:06;;;;;;;4.18;2.72;;;;;;;;;;4997633;28;20045;-68
2024/01/15 05:43:31;;;;;;;2.20;1.98;;;;;;;;;;4996352;28;20046;-67
2024/01/15 05:45:57;;;;;;;3.85;2.42;;;;;;;;;;4976580;28;20050;-68
2024/01/15 05:48:22;;;;;;;5.43;2.30;;;;;;;;;;4973455;28;20106;-67
2024/01/15 05:50:48;;;;;;;3.72;2.38;;;;;;;;;;4976139;28;20057;-68
2024/01/15 05:53:14;;;;;;;3.22;2.30;;;;;;;;;;4976810;28;20579;-67
2024/01/15 05:55:39;;;;;;;2.92;2.08;;;;;;;;;;4974921;28;20146;-69
2024/01/15 05:58:05;;;;;;;2.97;1.90;;;;;;;;;;4977549;28;20046;-68
2024/01/15 06:00:32;;;;;;;4.18;2.28;;;;;;;;;;4976745;28;20050;-68
2024/01/15 06:02:59;;;;;;;5.32;2.72;;;;;;;;;;4974412;28;22345;-67
2024/01/15 06:05:24;;;;;;;2.53;2.10;;;;;;;;;;4977539;28;20504;-68
2024/01/15 06:07:50;;;;;;;4.85;2.28;;;;;;;;;;4973689;28;20097;-69
2024/01/15 06:10:15;;;;;;;4.10;2.60;;;;;;;;;;4973408;28;20042;-68
2024/01/15 06:12:42;;;;;;;8.30;3.15;;;;;;;;;;4970495;28;20537;-68
2024/01/15 06:15:08;;;;;;;3.85;2.90;;;;;;;;;;4971336;28;20545;-69
2024/01/15 06:17:33;;;;;;;2.65;2.45;;;;;;;;;;4972604;28;20078;-67
2024/01/15 06:19:59;;;;;;;2.67;2.30;;;;;;;;;;4974570;28;20041;-67
2024/01/15 06:22:24;;;;;;;3.00;2.38;;;;;;;;;;4974500;28;21168;-68
2024/01/15 06:24:50;;;;;;;2.42;2.22;;;;;;;;;;4973844;28;20042;-68
2024/01/15 06:27:15;;;;;;;4.00;2.03;;;;;;;;;;4973592;28;20563;-69
2024/01/15 06:29:45;;;;;;;2.55;2.35;;;;;;;;;;4973866;28;20142;-68
2024/01/15 06:32:10;;;;;;;2.95;1.38;;;;;;;;;;4974596;28;20137;-67
2024/01/15 06:34:36;;;;;;;3.78;2.42;;;;;;;;;;4958568;28;20042;-68
2024/01/15 06:37:01;;;;;;;4.13;2.08;;;;;;;;;;4975655;28;20471;-68
2024/01/15 06:39:27;;;;;;;2.17;1.98;;;;;;;;;;4975261;28;20050;-68
2024/01/15 06:41:52;;;;;;;4.28;2.35;;;;;;;;;;4974511;28;20042;-69
2024/01/15 06:44:17;;;;;;;4.47;3.28;;;;;;;;;;4975669;28;20515;-69
2024/01/15 06:46:43;;;;;;;3.88;2.70;;;;;;;;;;4976200;28;20042;-68
2024/01/15 06:49:09;;;;;;;1.90;1.77;;;;;;;;;;4973352;28;20053;-68
2024/01/15 06:51:35;;;;;;;2.40;2.10;;;;;;;;;;4974748;28;20625;-69
2024/01/15 06:54:01;;;;;;;3.88;2.80;;;;;;;;;;4959668;28;20059;-68
2024/01/15 06:56:26;;;;;;;2.33;2.05;;;;;;;;;;4975469;28;20045;-70
2024/01/15 06:58:51;;;;;;;3.35;2.35;;;;;;;;;;4973293;28;20061;-68
2024/01/15 07:01:17;;;;;;;4.45;2.35;;;;;;;;;;4975382;28;20046;-69
2024/01/15 07:03:42;;;;;;;4.45;2.30;;;;;;;;;;4973346;28;20046;-68
2024/01/15 07:06:07;;;;;;;3.42;2.63;;;;;;;;;;4975877;28;20111;-69
2024/01/15 07:08:33;;;;;;;4.78;2.65;;;;;;;;;;4975780;28;20041;-68
2024/01/15 07:10:58;;;;;;;3.92;2.38;;;;;;;;;;4975327;28;20072;-67
2024/01/15 07:13:24;;;;;;;2.05;1.85;;;;;;;;;;4976216;28;20554;-68
2024/01/15 07:15:50;;;;;;;2.05;1.58;;;;;;;;;;4973627;28;20530;-67
2024/01/15 07:18:16;;;;;;;4.30;1.88;;;;;;;;;;4974063;28;20073;-67
2024/01/15 07:20:41;;;;;;;2.17;1.98;;;;;;;;;;4969730;28;20045;-69
2024/01/15 07:23:07;;;;;;;3.47;2.63;;;;;;;;;;4995536;28;20131;-69
2024/01/15 07:25:32;;;;;;;4.93;2.65;;;;;;;;;;4997263;28;20053;-69
2024/01/15 07:27:58;;;;;;;2.55;2.35;;;;;;;;;;4995107;28;20045;-70
2024/01/15 07:30:23;;;;;;;4.28;2.40;;;;;;;;;;4996086;28;20080;-69
2024/01/15 07:32:49;;;;;;;7.85;3.33;;;;;;;;;;4995761;28;20116;-68
2024/01/15 07:35:15;;;;;;;5.75;3.65;;;;;;;;;;4996911;28;20533;-67
2024/01/15 07:37:40;;;;;;;4.10;2.08;;;;;;;;;;4996210;28;20475;-71
2024/01/15 07:40:08;;;;;;;4.97;2.65;;;;;;;;;;4994432;28;20201;-69
2024/01/15 07:42:36;;;;;;;1.83;1.73;;;;;;;;;;4995940;28;20886;-69
2024/01/15 07:45:02;;;;;;;5.43;3.47;;;;;;;;;;4996084;28;20045;-70
2024/01/15 07:47:28;;;;;;;3.97;2.42;;;;;;;;;;4996281;28;20553;-70
2024/01/15 07:49:53;;;;;;;4.45;2.67;;;;;;;;;;4994786;28;20096;-68
2024/01/15 07:52:19;;;;;;;4.93;2.92;;;;;;;;;;4977543;28;20105;-69
2024/01/15 07:54:44;;;;;;;4.03;3.05;;;;;;;;;;4995753;28;20041;-69
2024/01/15 07:57:10;;;;;;;2.83;1.80;;;;;;;;;;4995318;28;20168;-68
2024/01/15 07:59:36;;;;;;;2.40;2.05;;;;;;;;;;4995617;28;20046;-69
2024/01/15 08:02:01;;;;;;;3.03;1.95;;;;;;;;;;4994606;28;20049;-70
2024/01/15 08:04:26;;;;;;;3.75;2.33;;;;;;;;;;4980423;28;20042;-68
2024/01/15 08:06:52;;;;;;;5.10;2.63;;;;;;;;;;4995707;28;20123;-69
2024/01/15 08:09:18;;;;;;;2.08;1.88;;;;;;;;;;4995646;28;20073;-69
2024/01/15 08:11:43;;;;;;;2.45;2.13;;;;;;;;;;4995049;28;20528;-69
2024/01/15 08:14:10;;;;;;;2.50;1.70;;;;;;;;;;4993993;28;20038;-67
2024/01/15 08:16:38;;;;;;;2.95;2.28;;;;;;;;;;4995590;28;20086;-67
2024/01/15 08:19:04;;;;;;;3.78;2.17;;;;;;;;;;4995047;28;20052;-71
2024/01/15 08:21:32;;;;;;;4.47;2.45;;;;;;;;;;4996194;28;20042;-66
2024/01/15 08:23:58;;;;;;;4.75;3.25;;;;;;;;;;4976001;28;20581;-70
2024/01/15 08:26:24;;;;;;;3.08;2.30;;;;;;;;;;4980650;28;20038;-69
2024/01/15 08:28:50;;;;;;;4.80;2.63;;;;;;;;;;4994798;28;20624;-67
2024/01/15 08:31:16;;;;;;;2.65;1.83;;;;;;;;;;4996115;28;20050;-69
2024/01/15 08:33:41;;;;;;;2.42;2.22;;;;;;;;;;4977389;28;20053;-70
2024/01/15 08:36:06;;;;;;;4.18;2.83;;;;;;;;;;4994736;28;20042;-69
2024/01/15 08:38:32;;;;;;;6.07;2.50;;;;;;;;;;4995713;28;20048;-70
2024/01/15 08:41:00;;;;;;;3.97;2.53;;;;;;;;;;4998113;28;20053;-69
2024/01/15 08:43:26;;;;;;;2.53;2.03;;;;;;;;;;4984060;28;20038;-69
2024/01/15 08:45:51;;;;;;;4.30;3.30;;;;;;;;;;4997305;28;20049;-71
2024/01/15 08:48:17;;;;;;;5.05;2.88;;;;;;;;;;4999427;28;20080;-68
2024/01/15 08:50:42;;;;;;;3.90;2.58;;;;;;;;;;4998850;28;20056;-68
2024/01/15 08:53:08;;;;;;;2.95;2.20;;;;;;;;;;4997521;28;20085;-68
2024/01/15 08:55:33;;;;;;;4.53;3.08;;;;;;;;;;4996967;28;20044;-70
2024/01/15 08:57:59;;;;;;;3.17;2.50;;;;;;;;;;4976432;28;20402;-70
2024/01/15 09:00:24;;;;;;;4.90;3.17;;;;;;;;;;4999261;28;20056;-70
2024/01/15 09:02:50;;;;;;;3.55;3.05;;;;;;;;;;4999175;28;20107;-69
2024/01/15 09:05:15;;;;;;;4.35;3.03;;;;;;;;;;4981822;28;20048;-69
2024/01/15 09:07:41;;;;;;;4.03;2.03;;;;;;;;;;4979810;28;20494;-70
2024/01/15 09:10:06;;;;;;;6.03;2.95;;;;;;;;;;4997548;28;20640;-69
2024/01/15 09:12:32;;;;;;;5.22;3.45;;;;;;;;;;4998859;28;20454;-69
2024/01/15 09:14:57;;;;;;;7.10;4.53;;;;;;;;;;4997819;28;20120;-69
2024/01/15 09:17:23;;;;;;;3.90;2.50;;;;;;;;;;4998104;28;20042;-69
2024/01/15 09:19:49;;;;;;;4.38;3.22;;;;;;;;;;4996918;28;20045;-69
2024/01/15 09:22:18;;;;;;;2.97;2.33;;;;;;;;;;4998620;28;20041;-69
2024/01/15 09:24:46;;;;;;;1.60;1.52;;;;;;;;;;4981801;28;20084;-69
2024/01/15 09:27:12;;;;;;;3.22;2.40;;;;;;;;;;4997956;28;20493;-69
2024/01/15 09:29:39;;;;;;;5.43;2.15;;;;;;;;;;4997172;28;20654;-67
2024/01/15 09:32:06;;;;;;;6.55;2.72;;;;;;;;;;4997836;28;20052;-69
2024/01/15 09:34:31;;;;;;;3.70;2.67;;;;;;;;;;4998798;28;21102;-68
2024/01/15 09:36:57;;;;;;;4.68;3.38;;;;;;;;;;4980788;28;20057;-68
2024/01/15 09:39:23;;;;;;;2.83;2.15;;;;;;;;;;4998541;28;20046;-68
2024/01/15 09:41:49;;;;;;;6.10;3.78;;;;;;;;;;4981798;28;20142;-68
2024/01/15 09:44:16;;;;;;;5.15;2.75;;;;;;;;;;4998047;28;20053;-68
2024/01/15 09:46:42;;;;;;;5.85;3.72;;;;;;;;;;4998265;28;20077;-68
2024/01/15 09:49:08;;;;;;;3.45;3.10;;;;;;;;;;4981974;28;20328;-68
2024/01/15 09:51:35;;;;;;;4.80;3.03;;;;;;;;;;4980637;28;20505;-68
2024/01/15 09:54:00;;;;;;;5.57;3.30;;;;;;;;;;4965540;28;20197;-67
2024/01/15 09:56:26;;;;;;;2.58;2.38;;;;;;;;;;4998748;28;20077;-67
2024/01/15 09:58:52;;;;;;;3.83;3.33;;;;;;;;;;4997913;28;20112;-67
2024/01/15 10:01:20;;;;;;;3.63;2.65;;;;;;;;;;4997875;28;20053;-67
2024/01/15 10:03:45;;;;;;;7.88;4.03;;;;;;;;;;4997007;28;20665;-68
2024/01/15 10:06:17;;;;;;;2.42;2.22;;;;;;;;;;4997717;28;20125;-67
2024/01/15 10:08:47;;;;;;;6.68;3.05;;;;;;;;;;4979294;28;20120;-66
2024/01/15 10:11:12;;;;;;;4.45;2.88;;;;;;;;;;4997054;28;20054;-68
2024/01/15 10:13:39;;;;;;;2.55;2.35;;;;;;;;;;4996962;28;20069;-68
2024/01/15 10:16:04;;;;;;;2.78;1.75;;;;;;;;;;4996960;28;20812;-67
2024/01/15 10:18:30;;;;;;;3.40;2.67;;;;;;;;;;4998047;28;20033;-67
2024/01/15 10:20:57;;;;;;;7.05;2.80;;;;;;;;;;4999169;28;20474;-68
2024/01/15 10:23:23;;;;;;;3.85;2.35;;;;;;;;;;4999099;28;20048;-70
2024/01/15 10:25:49;;;;;;;2.45;2.03;;;;;;;;;;4979826;28;20049;-69
2024/01/15 10:28:14;;;;;;;2.88;2.58;;;;;;;;;;4997118;28;20529;-66
2024/01/15 10:30:40;;;;;;;1.60;1.50;;;;;;;;;;4998437;28;20046;-67
2024/01/15 10:33:05;;;;;;;3.13;2.10;;;;;;;;;;4997107;28;20137;-67
2024/01/15 10:35:32;;;;;;;3.00;2.80;;;;;;;;;;4997846;28;20070;-67
2024/01/15 10:37:59;;;;;;;2.35;2.00;;;;;;;;;;4980712;28;20068;-67
2024/01/15 10:40:24;;;;;;;2.97;2.28;;;;;;;;;;4997788;28;20053;-68
2024/01/15 10:42:50;;;;;;;2.17;2.05;;;;;;;;;;4998171;28;20042;-68
2024/01/15 10:45:16;;;;;;;4.88;2.95;;;;;;;;;;4996787;28;20418;-67
2024/01/15 10:47:42;;;;;;;2.63;1.80;;;;;;;;;;4997075;28;20216;-67
2024/01/15 10:50:08;;;;;;;2.65;2.28;;;;;;;;;;4979384;28;20046;-67
2024/01/15 10:52:36;;;;;;;2.08;1.98;;;;;;;;;;4998078;28;21051;-67
2024/01/15 10:55:03;;;;;;;4.90;2.53;;;;;;;;;;4996589;28;20107;-67
2024/01/15 10:57:29;;;;;;;4.32;2.28;;;;;;;;;;4996860;28;20334;-67
2024/01/15 10:59:54;;;;;;;2.92;1.88;;;;;;;;;;4996705;28;20038;-67
2024/01/15 11:02:20;;;;;;;2.28;1.40;;;;;;;;;;4995982;28;20069;-67
2024/01/15 11:04:46;;;;;;;3.42;2.15;;;;;;;;;;4979869;28;20570;-68
2024/01/15 11:07:13;;;;;;;1.65;1.55;;;;;;;;;;4980696;28;20621;-68
2024/01/15 11:09:39;;;;;;;1.27;1.23;;;;;;;;;;4995600;28;20419;-67
2024/01/15 11:12:11;;;;;;;3.17;2.42;;;;;;;;;;4978351;28;20057;-67
2024/01/15 11:14:43;;;;;;;2.45;1.90;;;;;;;;;;4996845;28;20049;-67
2024/01/15 11:17:09;;;;;;;2.60;2.40;;;;;;;;;;4995909;28;20060;-67
2024/01/15 11:19:37;;;;;;;2.40;1.48;;;;;;;;;;4980191;28;20056;-67
2024/01/15 11:22:02;;;;;;;2.97;1.88;;;;;;;;;;4995975;28;20100;-67
2024/01/15 11:24:37;;;;;;;2.05;1.85;;;;;;;;;;4996563;28;20049;-68
2024/01/15 11:27:04;;;;;;;1.98;1.33;;;;;;;;;;4996104;28;20708;-68
2024/01/15 11:29:34;;;;;;;2.22;1.65;;;;;;;;;;4996500;28;20061;-68
2024/01/15 11:32:09;;;;;;;1.55;1.40;;;;;;;;;;4994855;28;20041;-69
2024/01/15 11:35:00;;;;;;;2.65;2.00;;;;;;;;;;4979225;28;20511;-69
2024/01/15 11:37:26;;;;;;;3.30;1.13;;;;;;;;;;4995959;28;20055;-69
2024/01/15 11:39:54;;;;;;;1.50;1.40;;;;;;;;;;4995751;28;20057;-69
2024/01/15 11:42:21;;;;;;;1.55;1.40;;;;;;;;;;4994163;28;20049;-68
2024/01/15 11:44:46;;;;;;;2.33;1.80;;;;;;;;;;4996349;28;20041;-69
2024/01/15 11:47:13;;;;;;;5.13;1.42;;;;;;;;;;4995205;28;20045;-69
2024/01/15 11:50:01;;;;;;;1.30;1.13;;;;;;;;;;4978045;28;20789;-69
2024/01/15 11:52:33;;;;;;;1.63;1.52;;;;;;;;;;4961300;28;20156;-68
2024/01/15 11:55:11;;;;;;;2.35;1.33;;;;;;;;;;4996349;28;20069;-69
2024/01/15 11:57:39;;;;;;;1.83;1.50;;;;;;;;;;4996700;28;20817;-68
2024/01/15 12:00:07;;;;;;;1.20;1.10;;;;;;;;;;4995736;28;20057;-68
2024/01/15 12:02:45;;;;;;;2.05;0.98;;;;;;;;;;4996153;28;20920;-69
2024/01/15 12:05:13;;;;;;;0.85;0.85;;;;;;;;;;4994588;28;20041;-68
2024/01/15 12:07:39;;;;;;;2.33;1.23;;;;;;;;;;4995649;28;20539;-68
2024/01/15 12:10:19;;;;;;;1.60;1.50;;;;;;;;;;4995142;28;20251;-68
2024/01/15 12:13:06;;;;;;;1.85;1.52;;;;;;;;;;4996058;28;20049;-69
2024/01/15 12:15:32;;;;;;;1.38;1.27;;;;;;;;;;4997414;28;20042;-69
2024/01/15 12:17:59;;;;;;;4.00;1.75;;;;;;;;;;4996949;28;20057;-70
2024/01/15 12:20:32;;;;;;;1.15;1.05;;;;;;;;;;4999491;28;20100;-69
2024/01/15 12:22:58;;;;;;;5.13;1.77;;;;;;;;;;4999877;28;20073;-69
2024/01/15 12:25:26;;;;;;;2.05;1.38;;;;;;;;;;4998652;28;21080;-70
2024/01/15 12:27:52;;;;;;;2.80;1.52;;;;;;;;;;4999379;28;20041;-69
2024/01/15 12:30:18;;;;;;;3.70;1.52;;;;;;;;;;4982936;28;20038;-68
2024/01/15 12:32:44;;;;;;;1.17;1.08;;;;;;;;;;4995651;28;20051;-68
2024/01/15 12:35:13;;;;;;;2.10;1.70;;;;;;;;;;4995915;28;20046;-68
2024/01/15 12:37:39;;;;;;;2.20;1.65;;;;;;;;;;4993580;28;20166;-68
2024/01/15 12:40:06;;;;;;;2.38;1.45;;;;;;;;;;4995010;28;20050;-68
2024/01/15 12:42:33;;;;;;;1.48;1.30;;;;;;;;;;4996015;28;20042;-68
2024/01/15 12:44:59;;;;;;;1.30;1.13;;;;;;;;;;4996259;28;20069;-68
2024/01/15 12:47:25;;;;;;;1.27;1.17;;;;;;;;;;4995192;28;20057;-67
2024/01/15 12:49:54;;;;;;;3.28;1.63;;;;;;;;;;4995915;28;20041;-68
2024/01/15 12:52:21;;;;;;;8.70;1.90;;;;;;;;;;4996534;28;20095;-67
2024/01/15 12:54:48;;;;;;;1.05;1.05;;;;;;;;;;4996307;28;21062;-68
2024/01/15 12:57:14;;;;;;;2.65;1.58;;;;;;;;;;4994730;28;20443;-67
2024/01/15 12:59:39;;;;;;;1.10;1.00;;;;;;;;;;4994883;28;20116;-68
2024/01/15 13:02:05;;;;;;;1.67;1.33;;;;;;;;;;4995603;28;20049;-67
2024/01/15 13:04:30;;;;;;;3.05;1.60;;;;;;;;;;4977768;28;20132;-68
2024/01/15 13:06:56;;;;;;;2.03;1.17;;;;;;;;;;4996970;28;20042;-68
2024/01/15 13:09:22;;;;;;;1.92;1.33;;;;;;;;;;4994327;28;20042;-69
2024/01/15 13:11:47;;;;;;;1.60;1.48;;;;;;;;;;4994840;28;20112;-68
2024/01/15 13:14:13;;;;;;;2.33;1.70;;;;;;;;;;4995917;28;20049;-68
2024/01/15 13:16:41;;;;;;;1.25;1.15;;;;;;;;;;4996011;28;20054;-68
2024/01/15 13:19:12;;;;;;;1.35;1.25;;;;;;;;;;4995836;28;20042;-67
2024/01/15 13:21:40;;;;;;;2.03;1.33;;;;;;;;;;4994236;28;20049;-68
2024/01/15 13:24:05;;;;;;;1.27;1.17;;;;;;;;;;4996252;28;20124;-69
2024/01/15 13:26:33;;;;;;;2.38;1.63;;;;;;;;;;4991499;28;20400;-68
2024/01/15 13:29:03;;;;;;;2.47;2.15;;;;;;;;;;4995781;28;20038;-67
2024/01/15 13:31:29;;;;;;;1.15;1.10;;;;;;;;;;4991429;28;20760;-69
2024/01/15 13:33:55;;;;;;;1.15;1.08;;;;;;;;;;4995602;28;20048;-67
2024/01/15 13:36:23;;;;;;;1.73;1.27;;;;;;;;;;4976979;28;20227;-67
2024/01/15 13:38:49;;;;;;;1.90;1.40;;;;;;;;;;4994849;28;20053;-68
2024/01/15 13:41:15;;;;;;;3.92;1.85;;;;;;;;;;4994814;28;20046;-68
2024/01/15 13:43:40;;;;;;;1.88;1.75;;;;;;;;;;4994734;28;20068;-68
2024/01/15 13:46:06;;;;;;;1.70;1.60;;;;;;;;;;4996487;28;20050;-68
2024/01/15 13:48:32;;;;;;;4.88;3.10;;;;;;;;;;4994644;28;20053;-67
2024/01/15 13:50:58;;;;;;;1.65;1.55;;;;;;;;;;4978094;28;20046;-67
2024/01/15 13:53:23;;;;;;;1.83;1.58;;;;;;;;;;4993317;28;20958;-67
2024/01/15 13:55:48;;;;;;;2.72;1.90;;;;;;;;;;4995023;28;20049;-68
2024/01/15 13:58:14;;;;;;;4.30;2.80;;;;;;;;;;4995678;28;20124;-67
2024/01/15 14:00:40;;;;;;;2.42;1.90;;;;;;;;;;4995372;28;20054;-68
2024/01/15 14:03:05;;;;;;;2.65;1.88;;;;;;;;;;4996384;28;20038;-68
2024/01/15 14:05:31;;;;;;;2.33;2.10;;;;;;;;;;4994822;28;20372;-67
2024/01/15 14:07:56;;;;;;;1.38;1.27;;;;;;;;;;4994828;28;20077;-67
2024/01/15 14:10:21;;;;;;;1.98;1.33;;;;;;;;;;4994637;28;20048;-68
2024/01/15 14:12:47;;;;;;;2.67;2.33;;;;;;;;;;4993875;28;20077;-68
2024/01/15 14:15:12;;;;;;;1.35;1.25;;;;;;;;;;4994418;28;20092;-68
2024/01/15 14:17:38;;;;;;;2.03;1.77;;;;;;;;;;4995350;28;20411;-67
2024/01/15 14:20:05;;;;;;;2.50;1.55;;;;;;;;;;4995641;28;20049;-67
2024/01/15 14:22:30;;;;;;;4.10;2.50;;;;;;;;;;4994709;28;20041;-68
2024/01/15 14:24:56;;;;;;;2.85;2.30;;;;;;;;;;4994694;28;20045;-68
2024/01/15 14:27:21;;;;;;;4.43;1.90;;;;;;;;;;4991227;28;20181;-69
2024/01/15 14:29:47;;;;;;;2.47;2.22;;;;;;;;;;4991589;28;20053;-68
2024/01/15 14:32:12;;;;;;;3.35;2.17;;;;;;;;;;4994484;28;20041;-68
2024/01/15 14:34:37;;;;;;;4.55;2.38;;;;;;;;;;4993084;28;20042;-68
2024/01/15 14:37:03;;;;;;;2.33;2.00;;;;;;;;;;4992911;28;20138;-68